createdAt,value
2018-04-15T00:00:33.118Z,18.60
2018-04-15T00:01:38.052Z,18.60
2018-04-15T00:02:43.236Z,18.60
2018-04-15T00:03:48.216Z,18.60
2018-04-15T00:04:53.027Z,18.60
2018-04-15T00:05:57.830Z,18.60
2018-04-15T00:07:03.543Z,18.60
2018-04-15T00:08:08.640Z,18.60
2018-04-15T00:09:13.953Z,18.50
2018-04-15T00:10:19.213Z,18.60
2018-04-15T00:11:24.064Z,18.50
2018-04-15T00:12:29.101Z,18.50
2018-04-15T00:13:34.022Z,18.50
2018-04-15T00:14:39.121Z,18.50
2018-04-15T00:15:44.098Z,18.50
2018-04-15T00:16:48.936Z,18.50
2018-04-15T00:17:53.863Z,18.50
2018-04-15T00:18:59.028Z,18.50
2018-04-15T00:20:04.211Z,18.50
2018-04-15T00:21:09.166Z,18.50
2018-04-15T00:22:14.292Z,18.50
2018-04-15T00:23:19.026Z,18.50
2018-04-15T00:24:24.041Z,18.50
2018-04-15T00:25:28.934Z,18.50
2018-04-15T00:26:34.085Z,18.50
2018-04-15T00:27:39.227Z,18.50
2018-04-15T00:28:44.329Z,18.50
2018-04-15T00:29:49.528Z,18.50
2018-04-15T00:30:54.446Z,18.50
2018-04-15T00:31:59.416Z,18.50
2018-04-15T00:33:04.366Z,18.50
2018-04-15T00:34:09.496Z,18.50
2018-04-15T00:35:14.261Z,18.50
2018-04-15T00:36:19.219Z,18.50
2018-04-15T00:37:24.128Z,18.50
2018-04-15T00:38:28.844Z,18.50
2018-04-15T00:39:33.552Z,18.50
2018-04-15T00:40:38.256Z,18.50
2018-04-15T00:41:43.364Z,18.50
2018-04-15T00:42:48.258Z,18.50
2018-04-15T00:43:53.311Z,18.50
2018-04-15T00:44:58.000Z,18.50
2018-04-15T00:46:02.878Z,18.50
2018-04-15T00:47:07.986Z,18.50
2018-04-15T00:48:12.646Z,18.50
2018-04-15T00:49:17.497Z,18.50
2018-04-15T00:50:22.358Z,18.50
2018-04-15T00:51:28.490Z,18.50
2018-04-15T00:52:33.385Z,18.50
2018-04-15T00:53:38.282Z,18.50
2018-04-15T00:54:43.472Z,18.50
2018-04-15T00:55:48.284Z,18.50
2018-04-15T00:56:53.325Z,18.50
2018-04-15T00:57:58.115Z,18.50
2018-04-15T00:59:02.949Z,18.50
2018-04-15T01:00:09.233Z,18.50
2018-04-15T01:01:14.239Z,18.50
2018-04-15T01:02:19.427Z,18.50
2018-04-15T01:03:24.475Z,18.50
2018-04-15T01:04:29.215Z,18.50
2018-04-15T01:05:36.341Z,18.50
2018-04-15T01:06:41.383Z,18.50
2018-04-15T01:07:46.661Z,18.50
2018-04-15T01:08:51.944Z,18.50
2018-04-15T01:09:56.948Z,18.50
2018-04-15T01:11:02.189Z,18.50
2018-04-15T01:12:07.065Z,18.50
2018-04-15T01:13:12.021Z,18.50
2018-04-15T01:14:17.034Z,18.50
2018-04-15T01:15:22.189Z,18.50
2018-04-15T01:16:26.995Z,18.50
2018-04-15T01:17:31.935Z,18.50
2018-04-15T01:18:36.881Z,18.50
2018-04-15T01:19:41.896Z,18.50
2018-04-15T01:20:46.709Z,18.50
2018-04-15T01:21:51.619Z,18.50
2018-04-15T01:22:56.657Z,18.50
2018-04-15T01:24:01.580Z,18.50
2018-04-15T01:25:06.765Z,18.40
2018-04-15T01:26:11.748Z,18.50
2018-04-15T01:27:16.553Z,18.50
2018-04-15T01:28:21.459Z,18.50
2018-04-15T01:29:26.279Z,18.50
2018-04-15T01:30:31.226Z,18.40
2018-04-15T01:31:36.242Z,18.40
2018-04-15T01:32:41.201Z,18.40
2018-04-15T01:33:46.202Z,18.40
2018-04-15T01:34:53.870Z,18.40
2018-04-15T01:35:58.811Z,18.40
2018-04-15T01:37:03.612Z,18.40
2018-04-15T01:38:08.351Z,18.50
2018-04-15T01:39:13.451Z,18.40
2018-04-15T01:40:18.118Z,18.40
2018-04-15T01:41:23.041Z,18.40
2018-04-15T01:42:28.836Z,18.40
2018-04-15T01:43:33.761Z,18.40
2018-04-15T01:44:38.620Z,18.40
2018-04-15T01:45:43.522Z,18.40
2018-04-15T01:46:48.422Z,18.40
2018-04-15T01:47:53.576Z,18.40
2018-04-15T01:48:58.454Z,18.40
2018-04-15T01:50:03.100Z,18.40
2018-04-15T01:51:07.731Z,18.40
2018-04-15T01:52:12.848Z,18.40
2018-04-15T01:53:17.739Z,18.40
2018-04-15T01:54:22.695Z,18.40
2018-04-15T01:55:27.435Z,18.40
2018-04-15T01:56:32.443Z,18.40
2018-04-15T01:57:37.483Z,18.40
2018-04-15T01:58:42.487Z,18.40
2018-04-15T01:59:47.773Z,18.40
2018-04-15T02:00:52.850Z,18.40
2018-04-15T02:01:57.868Z,18.40
2018-04-15T02:03:02.934Z,18.40
2018-04-15T02:04:07.836Z,18.40
2018-04-15T02:05:12.805Z,18.40
2018-04-15T02:06:17.755Z,18.40
2018-04-15T02:07:22.730Z,18.40
2018-04-15T02:08:27.992Z,18.40
2018-04-15T02:09:33.189Z,18.40
2018-04-15T02:10:38.413Z,18.40
2018-04-15T02:11:43.592Z,18.40
2018-04-15T02:12:48.648Z,18.40
2018-04-15T02:13:53.440Z,18.40
2018-04-15T02:14:58.439Z,18.40
2018-04-15T02:16:03.528Z,18.40
2018-04-15T02:17:08.607Z,18.40
2018-04-15T02:18:13.874Z,18.40
2018-04-15T02:19:18.919Z,18.40
2018-04-15T02:20:23.817Z,18.40
2018-04-15T02:21:28.646Z,18.40
2018-04-15T02:22:33.817Z,18.40
2018-04-15T02:23:38.863Z,18.40
2018-04-15T02:24:44.041Z,18.40
2018-04-15T02:25:49.070Z,18.40
2018-04-15T02:26:54.125Z,18.40
2018-04-15T02:27:59.144Z,18.40
2018-04-15T02:29:04.132Z,18.40
2018-04-15T02:30:08.927Z,18.40
2018-04-15T02:31:14.064Z,18.40
2018-04-15T02:32:19.051Z,18.40
2018-04-15T02:33:24.137Z,18.40
2018-04-15T02:34:29.086Z,18.40
2018-04-15T02:35:34.018Z,18.40
2018-04-15T02:36:39.124Z,18.40
2018-04-15T02:37:43.974Z,18.40
2018-04-15T02:38:48.915Z,18.40
2018-04-15T02:39:54.053Z,18.40
2018-04-15T02:40:59.190Z,18.40
2018-04-15T02:42:04.329Z,18.40
2018-04-15T02:43:09.761Z,18.40
2018-04-15T02:44:14.685Z,18.40
2018-04-15T02:45:19.592Z,18.40
2018-04-15T02:46:24.488Z,18.40
2018-04-15T02:47:29.422Z,18.30
2018-04-15T02:48:34.335Z,18.40
2018-04-15T02:49:39.306Z,18.30
2018-04-15T02:50:44.114Z,18.40
2018-04-15T02:51:49.325Z,18.40
2018-04-15T02:52:54.396Z,18.30
2018-04-15T02:53:59.375Z,18.40
2018-04-15T02:55:04.311Z,18.40
2018-04-15T02:56:09.343Z,18.40
2018-04-15T02:57:15.321Z,18.30
2018-04-15T02:58:21.054Z,18.40
2018-04-15T02:59:25.873Z,18.40
2018-04-15T03:00:31.105Z,18.30
2018-04-15T03:01:36.098Z,18.30
2018-04-15T03:02:41.055Z,18.30
2018-04-15T03:03:45.976Z,18.40
2018-04-15T03:04:50.652Z,18.30
2018-04-15T03:05:55.347Z,18.30
2018-04-15T03:07:00.255Z,18.30
2018-04-15T03:08:05.265Z,18.30
2018-04-15T03:09:10.114Z,18.30
2018-04-15T03:10:15.213Z,18.30
2018-04-15T03:11:20.333Z,18.30
2018-04-15T03:12:25.335Z,18.30
2018-04-15T03:13:30.276Z,18.30
2018-04-15T03:14:35.290Z,18.30
2018-04-15T03:15:40.347Z,18.30
2018-04-15T03:16:45.354Z,18.30
2018-04-15T03:17:50.646Z,18.30
2018-04-15T03:18:55.586Z,18.30
2018-04-15T03:20:00.634Z,18.30
2018-04-15T03:21:05.775Z,18.30
2018-04-15T03:22:10.837Z,18.30
2018-04-15T03:23:15.959Z,18.30
2018-04-15T03:24:21.123Z,18.30
2018-04-15T03:25:26.266Z,18.30
2018-04-15T03:26:31.362Z,18.30
2018-04-15T03:27:36.515Z,18.30
2018-04-15T03:28:42.082Z,18.30
2018-04-15T03:29:47.887Z,18.30
2018-04-15T03:30:53.182Z,18.30
2018-04-15T03:31:58.215Z,18.30
2018-04-15T03:33:03.161Z,18.30
2018-04-15T03:34:08.207Z,18.30
2018-04-15T03:35:13.173Z,18.30
2018-04-15T03:36:18.362Z,18.30
2018-04-15T03:37:23.359Z,18.30
2018-04-15T03:38:28.504Z,18.30
2018-04-15T03:39:33.637Z,18.30
2018-04-15T03:40:38.847Z,18.30
2018-04-15T03:41:43.918Z,18.40
2018-04-15T03:42:48.971Z,18.30
2018-04-15T03:43:54.209Z,18.30
2018-04-15T03:44:59.338Z,18.30
2018-04-15T03:46:04.271Z,18.30
2018-04-15T03:47:09.518Z,18.30
2018-04-15T03:48:14.570Z,18.30
2018-04-15T03:49:19.665Z,18.30
2018-04-15T03:50:24.599Z,18.30
2018-04-15T03:51:29.545Z,18.30
2018-04-15T03:52:34.555Z,18.30
2018-04-15T03:53:39.501Z,18.30
2018-04-15T03:54:44.209Z,18.30
2018-04-15T03:55:49.292Z,18.30
2018-04-15T03:56:54.463Z,18.30
2018-04-15T03:57:59.307Z,18.30
2018-04-15T03:59:04.440Z,18.30
2018-04-15T04:00:09.321Z,18.30
2018-04-15T04:01:14.328Z,18.30
2018-04-15T04:02:19.412Z,18.30
2018-04-15T04:03:24.248Z,18.30
2018-04-15T04:04:29.228Z,18.30
2018-04-15T04:05:34.143Z,18.30
2018-04-15T04:06:39.003Z,18.30
2018-04-15T04:07:44.217Z,18.30
2018-04-15T04:08:49.204Z,18.30
2018-04-15T04:09:54.332Z,18.30
2018-04-15T04:10:59.604Z,18.30
2018-04-15T04:12:04.803Z,18.30
2018-04-15T04:13:10.042Z,18.30
2018-04-15T04:14:15.116Z,18.30
2018-04-15T04:15:20.470Z,18.30
2018-04-15T04:16:25.442Z,18.30
2018-04-15T04:17:30.703Z,18.30
2018-04-15T04:18:35.635Z,18.30
2018-04-15T04:19:40.852Z,18.30
2018-04-15T04:20:45.802Z,18.30
2018-04-15T04:21:50.931Z,18.30
2018-04-15T04:22:56.126Z,18.30
2018-04-15T04:24:01.122Z,18.30
2018-04-15T04:25:06.384Z,18.20
2018-04-15T04:26:11.731Z,18.30
2018-04-15T04:27:16.963Z,18.20
2018-04-15T04:28:22.180Z,18.30
2018-04-15T04:29:27.096Z,18.30
2018-04-15T04:30:31.942Z,18.30
2018-04-15T04:31:37.290Z,18.30
2018-04-15T04:32:42.460Z,18.20
2018-04-15T04:33:47.605Z,18.20
2018-04-15T04:34:52.574Z,18.20
2018-04-15T04:35:57.378Z,18.20
2018-04-15T04:37:02.442Z,18.20
2018-04-15T04:38:07.225Z,18.20
2018-04-15T04:39:12.262Z,18.20
2018-04-15T04:40:17.108Z,18.20
2018-04-15T04:41:21.888Z,18.30
2018-04-15T04:42:27.011Z,18.30
2018-04-15T04:43:32.042Z,18.30
2018-04-15T04:44:37.019Z,18.30
2018-04-15T04:45:42.011Z,18.30
2018-04-15T04:46:46.973Z,18.30
2018-04-15T04:47:52.090Z,18.30
2018-04-15T04:48:57.222Z,18.20
2018-04-15T04:50:02.446Z,18.30
2018-04-15T04:51:07.485Z,18.30
2018-04-15T04:52:12.436Z,18.20
2018-04-15T04:53:17.315Z,18.20
2018-04-15T04:54:22.504Z,18.20
2018-04-15T04:55:27.600Z,18.20
2018-04-15T04:56:32.767Z,18.20
2018-04-15T04:57:38.029Z,18.20
2018-04-15T04:58:42.990Z,18.20
2018-04-15T04:59:48.179Z,18.20
2018-04-15T05:00:53.100Z,18.20
2018-04-15T05:01:57.851Z,18.20
2018-04-15T05:03:02.845Z,18.20
2018-04-15T05:04:08.481Z,18.20
2018-04-15T05:05:13.345Z,18.20
2018-04-15T05:06:18.106Z,18.20
2018-04-15T05:07:23.039Z,18.20
2018-04-15T05:08:28.206Z,18.20
2018-04-15T05:09:33.019Z,18.20
2018-04-15T05:10:38.016Z,18.20
2018-04-15T05:11:42.951Z,18.20
2018-04-15T05:12:47.902Z,18.20
2018-04-15T05:13:52.625Z,18.20
2018-04-15T05:14:57.513Z,18.20
2018-04-15T05:16:02.748Z,18.20
2018-04-15T05:17:07.755Z,18.20
2018-04-15T05:18:12.981Z,18.20
2018-04-15T05:19:18.212Z,18.20
2018-04-15T05:20:23.085Z,18.20
2018-04-15T05:21:28.094Z,18.20
2018-04-15T05:22:32.975Z,18.20
2018-04-15T05:23:38.132Z,18.20
2018-04-15T05:24:43.173Z,18.20
2018-04-15T05:25:48.193Z,18.20
2018-04-15T05:26:53.280Z,18.20
2018-04-15T05:27:58.290Z,18.20
2018-04-15T05:29:03.122Z,18.20
2018-04-15T05:30:08.268Z,18.20
2018-04-15T05:31:13.348Z,18.20
2018-04-15T05:32:18.345Z,18.20
2018-04-15T05:33:23.361Z,18.20
2018-04-15T05:34:28.514Z,18.20
2018-04-15T05:35:33.595Z,18.20
2018-04-15T05:36:38.331Z,18.20
2018-04-15T05:37:43.533Z,18.20
2018-04-15T05:38:48.509Z,18.20
2018-04-15T05:39:53.258Z,18.20
2018-04-15T05:40:58.175Z,18.20
2018-04-15T05:42:03.015Z,18.20
2018-04-15T05:43:07.789Z,18.20
2018-04-15T05:44:12.771Z,18.20
2018-04-15T05:45:17.865Z,18.20
2018-04-15T05:46:22.949Z,18.20
2018-04-15T05:47:28.067Z,18.20
2018-04-15T05:48:32.974Z,18.20
2018-04-15T05:49:37.807Z,18.20
2018-04-15T05:50:42.477Z,18.20
2018-04-15T05:51:47.371Z,18.20
2018-04-15T05:52:52.545Z,18.20
2018-04-15T05:53:57.658Z,18.20
2018-04-15T05:55:02.393Z,18.20
2018-04-15T05:56:07.337Z,18.20
2018-04-15T05:57:12.452Z,18.20
2018-04-15T05:58:17.223Z,18.20
2018-04-15T05:59:22.410Z,18.20
2018-04-15T06:00:27.545Z,18.20
2018-04-15T06:01:32.489Z,18.20
2018-04-15T06:02:37.777Z,18.20
2018-04-15T06:03:42.992Z,18.20
2018-04-15T06:04:47.839Z,18.20
2018-04-15T06:05:52.841Z,18.20
2018-04-15T06:06:57.978Z,18.20
2018-04-15T06:08:02.899Z,18.20
2018-04-15T06:09:08.098Z,18.30
2018-04-15T06:10:13.080Z,18.30
2018-04-15T06:11:18.283Z,18.30
2018-04-15T06:12:23.565Z,18.30
2018-04-15T06:13:28.846Z,18.20
2018-04-15T06:14:33.749Z,18.30
2018-04-15T06:15:38.521Z,18.20
2018-04-15T06:16:43.414Z,18.20
2018-04-15T06:17:48.543Z,18.30
2018-04-15T06:18:53.552Z,18.20
2018-04-15T06:19:58.496Z,18.20
2018-04-15T06:21:03.426Z,18.20
2018-04-15T06:22:08.290Z,18.20
2018-04-15T06:23:13.395Z,18.20
2018-04-15T06:24:18.147Z,18.20
2018-04-15T06:25:22.892Z,18.20
2018-04-15T06:26:27.881Z,18.20
2018-04-15T06:27:32.813Z,18.20
2018-04-15T06:28:37.890Z,18.20
2018-04-15T06:29:43.095Z,18.20
2018-04-15T06:30:48.125Z,18.20
2018-04-15T06:31:53.306Z,18.20
2018-04-15T06:32:58.609Z,18.20
2018-04-15T06:34:03.662Z,18.20
2018-04-15T06:35:08.667Z,18.20
2018-04-15T06:36:14.868Z,18.20
2018-04-15T06:37:20.184Z,18.20
2018-04-15T06:38:25.341Z,18.20
2018-04-15T06:39:30.455Z,18.20
2018-04-15T06:40:35.326Z,18.20
2018-04-15T06:41:40.283Z,18.30
2018-04-15T06:42:45.124Z,18.30
2018-04-15T06:43:50.009Z,18.30
2018-04-15T06:44:54.836Z,18.30
2018-04-15T06:45:59.833Z,18.30
2018-04-15T06:47:05.729Z,18.40
2018-04-15T06:48:10.698Z,18.40
2018-04-15T06:49:15.864Z,18.50
2018-04-15T06:50:20.910Z,18.50
2018-04-15T06:51:25.989Z,18.50
2018-04-15T06:52:31.055Z,18.50
2018-04-15T06:53:36.200Z,18.60
2018-04-15T06:54:41.217Z,18.60
2018-04-15T06:55:46.338Z,18.60
2018-04-15T06:56:51.130Z,18.70
2018-04-15T06:57:56.399Z,18.70
2018-04-15T06:59:02.314Z,18.70
2018-04-15T07:00:10.078Z,18.80
2018-04-15T07:01:14.978Z,18.80
2018-04-15T07:02:20.155Z,18.80
2018-04-15T07:03:25.050Z,18.80
2018-04-15T07:04:30.256Z,18.80
2018-04-15T07:05:35.291Z,18.90
2018-04-15T07:06:40.366Z,18.90
2018-04-15T07:07:45.531Z,18.90
2018-04-15T07:08:50.419Z,18.90
2018-04-15T07:09:56.570Z,18.90
2018-04-15T07:11:02.056Z,18.90
2018-04-15T07:12:07.997Z,18.90
2018-04-15T07:13:13.296Z,18.90
2018-04-15T07:14:18.436Z,18.90
2018-04-15T07:15:23.738Z,18.80
2018-04-15T07:16:29.095Z,18.80
2018-04-15T07:17:34.133Z,18.80
2018-04-15T07:18:38.937Z,18.80
2018-04-15T07:19:43.812Z,18.80
2018-04-15T07:20:48.832Z,18.80
2018-04-15T07:21:53.915Z,18.80
2018-04-15T07:22:58.998Z,18.80
2018-04-15T07:24:03.973Z,18.80
2018-04-15T07:25:09.429Z,18.80
2018-04-15T07:26:14.596Z,18.80
2018-04-15T07:27:19.882Z,18.90
2018-04-15T07:28:24.992Z,18.90
2018-04-15T07:29:29.949Z,18.90
2018-04-15T07:30:34.988Z,18.90
2018-04-15T07:31:39.981Z,18.90
2018-04-15T07:32:45.061Z,18.90
2018-04-15T07:33:50.276Z,18.90
2018-04-15T07:34:55.268Z,18.90
2018-04-15T07:36:00.250Z,18.90
2018-04-15T07:37:05.330Z,18.90
2018-04-15T07:38:10.431Z,19.00
2018-04-15T07:39:15.425Z,19.00
2018-04-15T07:40:23.628Z,19.00
2018-04-15T07:41:28.583Z,18.90
2018-04-15T07:42:33.726Z,18.90
2018-04-15T07:43:38.780Z,18.90
2018-04-15T07:44:44.776Z,18.90
2018-04-15T07:45:49.805Z,18.90
2018-04-15T07:46:55.137Z,18.90
2018-04-15T07:47:59.873Z,18.90
2018-04-15T07:49:04.914Z,18.90
2018-04-15T07:50:09.942Z,18.90
2018-04-15T07:51:15.066Z,18.90
2018-04-15T07:52:19.895Z,18.90
2018-04-15T07:53:24.735Z,18.90
2018-04-15T07:54:29.544Z,18.90
2018-04-15T07:55:34.818Z,18.90
2018-04-15T07:56:39.881Z,18.90
2018-04-15T07:57:44.922Z,18.80
2018-04-15T07:58:50.162Z,18.80
2018-04-15T07:59:55.819Z,18.80
2018-04-15T08:01:00.770Z,18.80
2018-04-15T08:02:05.939Z,18.80
2018-04-15T08:03:16.366Z,18.80
2018-04-15T08:04:21.350Z,18.80
2018-04-15T08:05:26.254Z,18.80
2018-04-15T08:06:31.072Z,18.80
2018-04-15T08:07:36.168Z,18.80
2018-04-15T08:08:41.166Z,18.80
2018-04-15T08:09:46.173Z,18.80
2018-04-15T08:10:51.315Z,18.80
2018-04-15T08:11:56.258Z,18.80
2018-04-15T08:13:01.233Z,18.80
2018-04-15T08:14:06.151Z,18.80
2018-04-15T08:15:11.312Z,18.80
2018-04-15T08:16:16.885Z,18.70
2018-04-15T08:17:21.626Z,18.70
2018-04-15T08:18:26.620Z,18.70
2018-04-15T08:19:31.772Z,18.70
2018-04-15T08:20:36.522Z,18.70
2018-04-15T08:21:41.268Z,18.70
2018-04-15T08:22:46.101Z,18.70
2018-04-15T08:23:52.560Z,18.70
2018-04-15T08:24:57.467Z,18.70
2018-04-15T08:26:02.288Z,18.70
2018-04-15T08:27:07.382Z,18.70
2018-04-15T08:28:12.516Z,18.70
2018-04-15T08:29:18.367Z,18.70
2018-04-15T08:30:23.573Z,18.70
2018-04-15T08:31:28.571Z,18.70
2018-04-15T08:32:33.728Z,18.70
2018-04-15T08:33:38.921Z,18.70
2018-04-15T08:34:43.752Z,18.70
2018-04-15T08:35:49.062Z,18.70
2018-04-15T08:36:54.185Z,18.70
2018-04-15T08:37:59.181Z,18.70
2018-04-15T08:39:04.070Z,18.60
2018-04-15T08:40:09.102Z,18.60
2018-04-15T08:41:14.408Z,18.60
2018-04-15T08:42:19.461Z,18.60
2018-04-15T08:43:24.323Z,18.60
2018-04-15T08:44:29.408Z,18.60
2018-04-15T08:45:34.674Z,18.60
2018-04-15T08:46:39.650Z,18.60
2018-04-15T08:47:44.462Z,18.60
2018-04-15T08:48:49.434Z,18.60
2018-04-15T08:49:54.445Z,18.60
2018-04-15T08:50:59.426Z,18.60
2018-04-15T08:52:04.390Z,18.60
2018-04-15T08:53:09.575Z,18.60
2018-04-15T08:54:14.737Z,18.60
2018-04-15T08:55:19.761Z,18.60
2018-04-15T08:56:24.677Z,18.60
2018-04-15T08:57:29.702Z,18.60
2018-04-15T08:58:34.767Z,18.60
2018-04-15T08:59:39.576Z,18.60
2018-04-15T09:00:44.529Z,18.60
2018-04-15T09:01:49.243Z,18.60
2018-04-15T09:02:54.136Z,18.60
2018-04-15T09:03:58.826Z,18.60
2018-04-15T09:05:03.790Z,18.60
2018-04-15T09:06:08.707Z,18.60
2018-04-15T09:07:13.577Z,18.60
2018-04-15T09:08:18.512Z,18.60
2018-04-15T09:09:23.318Z,18.60
2018-04-15T09:10:28.271Z,18.60
2018-04-15T09:11:33.481Z,18.60
2018-04-15T09:12:38.274Z,18.60
2018-04-15T09:13:43.311Z,18.60
2018-04-15T09:14:48.423Z,18.60
2018-04-15T09:15:53.549Z,18.60
2018-04-15T09:16:58.397Z,18.60
2018-04-15T09:18:03.306Z,18.60
2018-04-15T09:19:08.537Z,18.60
2018-04-15T09:20:13.226Z,18.70
2018-04-15T09:21:18.309Z,18.70
2018-04-15T09:22:23.451Z,18.70
2018-04-15T09:23:28.372Z,18.70
2018-04-15T09:24:33.354Z,18.80
2018-04-15T09:25:38.329Z,18.80
2018-04-15T09:26:43.361Z,18.80
2018-04-15T09:27:48.145Z,18.80
2018-04-15T09:28:53.021Z,18.80
2018-04-15T09:29:57.863Z,18.90
2018-04-15T09:31:03.096Z,18.90
2018-04-15T09:32:07.918Z,18.90
2018-04-15T09:33:12.962Z,18.90
2018-04-15T09:34:17.662Z,18.90
2018-04-15T09:35:22.811Z,18.90
2018-04-15T09:36:27.757Z,18.90
2018-04-15T09:37:32.869Z,18.90
2018-04-15T09:38:38.042Z,18.90
2018-04-15T09:39:43.017Z,18.90
2018-04-15T09:40:48.022Z,18.90
2018-04-15T09:41:53.098Z,18.90
2018-04-15T09:42:58.198Z,18.90
2018-04-15T09:44:03.339Z,18.90
2018-04-15T09:45:08.589Z,18.80
2018-04-15T09:46:13.839Z,18.80
2018-04-15T09:47:18.922Z,18.80
2018-04-15T09:48:24.221Z,18.80
2018-04-15T09:49:29.420Z,18.80
2018-04-15T09:50:34.560Z,18.80
2018-04-15T09:51:39.564Z,18.80
2018-04-15T09:52:44.626Z,18.80
2018-04-15T09:53:49.617Z,18.80
2018-04-15T09:54:54.489Z,18.70
2018-04-15T09:55:59.529Z,18.70
2018-04-15T09:57:04.760Z,18.70
2018-04-15T09:58:10.258Z,18.60
2018-04-15T09:59:15.472Z,18.60
2018-04-15T10:00:20.324Z,18.60
2018-04-15T10:01:25.706Z,18.50
2018-04-15T10:02:30.614Z,18.50
2018-04-15T10:03:36.405Z,18.50
2018-04-15T10:04:41.225Z,18.50
2018-04-15T10:05:45.950Z,18.40
2018-04-15T10:06:50.814Z,18.40
2018-04-15T10:07:55.623Z,18.40
2018-04-15T10:09:00.540Z,18.40
2018-04-15T10:10:05.205Z,18.40
2018-04-15T10:11:10.110Z,18.30
2018-04-15T10:12:15.129Z,18.30
2018-04-15T10:13:20.186Z,18.30
2018-04-15T10:14:25.285Z,18.30
2018-04-15T10:15:30.148Z,18.30
2018-04-15T10:16:34.807Z,18.30
2018-04-15T10:17:39.451Z,18.30
2018-04-15T10:18:44.184Z,18.30
2018-04-15T10:19:49.047Z,18.30
2018-04-15T10:20:53.999Z,18.30
2018-04-15T10:21:58.892Z,18.30
2018-04-15T10:23:03.594Z,18.30
2018-04-15T10:24:09.633Z,18.20
2018-04-15T10:25:14.474Z,18.20
2018-04-15T10:26:19.460Z,18.20
2018-04-15T10:27:24.279Z,18.20
2018-04-15T10:28:29.423Z,18.10
2018-04-15T10:29:34.807Z,18.10
2018-04-15T10:30:39.621Z,18.10
2018-04-15T10:31:44.483Z,18.10
2018-04-15T10:32:49.608Z,18.10
2018-04-15T10:33:54.416Z,18.10
2018-04-15T10:34:59.420Z,18.10
2018-04-15T10:36:04.651Z,18.10
2018-04-15T10:37:09.615Z,18.00
2018-04-15T10:38:14.695Z,18.10
2018-04-15T10:39:19.936Z,18.00
2018-04-15T10:40:26.011Z,18.00
2018-04-15T10:41:30.997Z,18.00
2018-04-15T10:42:35.987Z,18.00
2018-04-15T10:43:41.216Z,18.00
2018-04-15T10:44:46.270Z,18.00
2018-04-15T10:45:51.496Z,18.00
2018-04-15T10:46:56.545Z,18.00
2018-04-15T10:48:01.471Z,18.00
2018-04-15T10:49:06.574Z,18.00
2018-04-15T10:50:11.848Z,18.00
2018-04-15T10:51:17.018Z,18.00
2018-04-15T10:52:22.258Z,18.00
2018-04-15T10:53:27.323Z,18.00
2018-04-15T10:54:32.290Z,17.90
2018-04-15T10:55:37.318Z,18.00
2018-04-15T10:56:43.032Z,17.90
2018-04-15T10:57:48.169Z,17.90
2018-04-15T10:58:53.179Z,17.90
2018-04-15T10:59:58.418Z,17.90
2018-04-15T11:01:03.423Z,17.90
2018-04-15T11:02:08.431Z,17.90
2018-04-15T11:03:13.343Z,17.90
2018-04-15T11:04:18.396Z,17.90
2018-04-15T11:05:23.437Z,17.90
2018-04-15T11:06:28.330Z,17.90
2018-04-15T11:07:33.833Z,17.90
2018-04-15T11:08:39.394Z,17.90
2018-04-15T11:09:44.729Z,17.90
2018-04-15T11:10:49.887Z,17.90
2018-04-15T11:11:55.100Z,17.80
2018-04-15T11:13:00.341Z,17.80
2018-04-15T11:14:05.633Z,17.80
2018-04-15T11:15:10.749Z,17.80
2018-04-15T11:16:15.894Z,17.80
2018-04-15T11:17:21.088Z,17.80
2018-04-15T11:18:27.043Z,17.80
2018-04-15T11:19:32.877Z,17.80
2018-04-15T11:20:37.751Z,17.80
2018-04-15T11:21:42.854Z,17.80
2018-04-15T11:22:48.041Z,17.80
2018-04-15T11:23:53.182Z,17.80
2018-04-15T11:24:58.490Z,17.80
2018-04-15T11:26:03.572Z,17.80
2018-04-15T11:27:09.033Z,17.80
2018-04-15T11:28:14.154Z,17.80
2018-04-15T11:29:19.296Z,17.80
2018-04-15T11:30:24.427Z,17.80
2018-04-15T11:31:29.783Z,17.90
2018-04-15T11:32:35.119Z,17.90
2018-04-15T11:33:40.286Z,17.90
2018-04-15T11:34:45.296Z,17.90
2018-04-15T11:35:50.674Z,17.90
2018-04-15T11:36:55.833Z,17.90
2018-04-15T11:38:01.122Z,17.90
2018-04-15T11:39:06.286Z,17.90
2018-04-15T11:40:11.546Z,17.90
2018-04-15T11:41:16.584Z,17.80
2018-04-15T11:42:21.718Z,17.80
2018-04-15T11:43:27.313Z,17.80
2018-04-15T11:44:32.336Z,17.80
2018-04-15T11:45:37.683Z,17.90
2018-04-15T11:46:43.008Z,17.90
2018-04-15T11:47:47.981Z,17.90
2018-04-15T11:48:53.071Z,17.90
2018-04-15T11:49:58.275Z,17.90
2018-04-15T11:51:03.311Z,17.90
2018-04-15T11:52:08.663Z,17.90
2018-04-15T11:53:13.704Z,17.90
2018-04-15T11:54:18.942Z,17.80
2018-04-15T11:55:24.063Z,17.80
2018-04-15T11:56:29.254Z,17.80
2018-04-15T11:57:34.225Z,17.80
2018-04-15T11:58:39.495Z,17.80
2018-04-15T11:59:44.313Z,17.80
2018-04-15T12:00:49.381Z,17.90
2018-04-15T12:01:54.572Z,17.90
2018-04-15T12:02:59.798Z,17.90
2018-04-15T12:04:04.657Z,17.90
2018-04-15T12:05:10.039Z,17.90
2018-04-15T12:06:15.118Z,17.90
2018-04-15T12:07:20.352Z,17.90
2018-04-15T12:08:25.498Z,17.90
2018-04-15T12:09:30.548Z,17.90
2018-04-15T12:10:35.646Z,18.00
2018-04-15T12:11:40.680Z,18.00
2018-04-15T12:12:45.734Z,18.00
2018-04-15T12:13:50.914Z,18.00
2018-04-15T12:14:56.728Z,18.00
2018-04-15T12:16:01.837Z,18.00
2018-04-15T12:17:07.202Z,18.00
2018-04-15T12:18:12.479Z,18.00
2018-04-15T12:19:17.555Z,18.00
2018-04-15T12:20:22.633Z,18.00
2018-04-15T12:21:27.658Z,18.00
2018-04-15T12:22:32.607Z,18.00
2018-04-15T12:23:38.014Z,18.00
2018-04-15T12:24:43.035Z,18.00
2018-04-15T12:25:48.050Z,18.00
2018-04-15T12:26:53.286Z,18.00
2018-04-15T12:27:58.346Z,18.00
2018-04-15T12:29:03.283Z,18.00
2018-04-15T12:30:08.394Z,18.00
2018-04-15T12:31:13.699Z,18.00
2018-04-15T12:32:18.767Z,18.00
2018-04-15T12:33:23.695Z,18.00
2018-04-15T12:34:28.785Z,18.10
2018-04-15T12:35:34.069Z,18.10
2018-04-15T12:36:38.989Z,18.00
2018-04-15T12:37:44.302Z,18.00
2018-04-15T12:38:49.515Z,18.00
2018-04-15T12:39:54.345Z,18.00
2018-04-15T12:40:59.436Z,18.00
2018-04-15T12:42:04.555Z,18.10
2018-04-15T12:43:09.804Z,18.00
2018-04-15T12:44:14.888Z,18.10
2018-04-15T12:45:20.058Z,18.10
2018-04-15T12:46:25.183Z,18.10
2018-04-15T12:47:30.105Z,18.10
2018-04-15T12:48:35.367Z,18.10
2018-04-15T12:49:40.393Z,18.10
2018-04-15T12:50:45.632Z,18.10
2018-04-15T12:51:50.696Z,18.10
2018-04-15T12:52:55.703Z,18.10
2018-04-15T12:54:00.929Z,18.10
2018-04-15T12:55:06.280Z,18.10
2018-04-15T12:56:11.264Z,18.10
2018-04-15T12:57:16.414Z,18.10
2018-04-15T12:58:21.582Z,18.10
2018-04-15T12:59:26.800Z,18.10
2018-04-15T13:00:31.863Z,18.10
2018-04-15T13:01:37.180Z,18.10
2018-04-15T13:02:42.103Z,18.10
2018-04-15T13:03:47.096Z,18.10
2018-04-15T13:04:52.139Z,18.10
2018-04-15T13:05:57.163Z,18.10
2018-04-15T13:07:02.334Z,18.10
2018-04-15T13:08:07.504Z,18.10
2018-04-15T13:09:12.542Z,18.10
2018-04-15T13:10:17.684Z,18.10
2018-04-15T13:11:22.807Z,18.10
2018-04-15T13:12:28.148Z,18.10
2018-04-15T13:13:33.656Z,18.10
2018-04-15T13:14:38.852Z,18.10
2018-04-15T13:15:43.951Z,18.10
2018-04-15T13:16:49.101Z,18.10
2018-04-15T13:17:54.246Z,18.10
2018-04-15T13:18:59.551Z,18.10
2018-04-15T13:20:04.817Z,18.10
2018-04-15T13:21:09.875Z,18.10
2018-04-15T13:22:15.118Z,18.10
2018-04-15T13:23:20.318Z,18.10
2018-04-15T13:24:25.518Z,18.10
2018-04-15T13:25:30.720Z,18.10
2018-04-15T13:26:35.806Z,18.10
2018-04-15T13:27:40.743Z,18.10
2018-04-15T13:28:45.545Z,18.10
2018-04-15T13:29:50.480Z,18.10
2018-04-15T13:30:55.754Z,18.10
2018-04-15T13:32:00.901Z,18.10
2018-04-15T13:33:05.950Z,18.10
2018-04-15T13:34:11.145Z,18.10
2018-04-15T13:35:16.301Z,18.10
2018-04-15T13:36:21.379Z,18.10
2018-04-15T13:37:26.797Z,18.10
2018-04-15T13:38:31.882Z,18.10
2018-04-15T13:39:37.305Z,18.10
2018-04-15T13:40:42.657Z,18.10
2018-04-15T13:41:47.800Z,18.10
2018-04-15T13:42:53.236Z,18.10
2018-04-15T13:43:58.332Z,18.10
2018-04-15T13:45:03.439Z,18.10
2018-04-15T13:46:08.603Z,18.10
2018-04-15T13:47:13.837Z,18.10
2018-04-15T13:48:19.282Z,18.10
2018-04-15T13:49:25.181Z,18.10
2018-04-15T13:50:30.299Z,18.10
2018-04-15T13:51:35.516Z,18.20
2018-04-15T13:52:41.496Z,18.10
2018-04-15T13:53:46.813Z,18.10
2018-04-15T13:54:52.046Z,18.10
2018-04-15T13:55:57.279Z,18.10
2018-04-15T13:57:02.331Z,18.10
2018-04-15T13:58:07.484Z,18.10